Weather History for PAAK - October, 2013

Change the Weather History Date:

Tuesday, October 1, 2013

  Actual Average (PADK) Record (PADK)
Temperature  
Mean Temperature 47 °F -  
Max Temperature 50 °F 49 °F 56 °F (1989)
Min Temperature 44 °F 39 °F 32 °F (1972)
Degree Days  
Heating Degree Days 18    
Moisture  
Dew Point 42 °F    
Average Humidity 82    
Maximum Humidity 93    
Minimum Humidity 71    
Precipitation  
Precipitation 0.00 in - - ()
Sea Level Pressure  
Sea Level Pressure 29.25 in    
Wind  
Wind Speed 16 mph (WSW)    
Max Wind Speed 32 mph    
Max Gust Speed 40 mph    
Visibility 8 miles    
Events      
Averages and records for this station are not official NWS values.
T = Trace of Precipitation, MM = Missing Value Source: NWS Daily Summary

Daily Weather History Graph

Daily Weather History Graph

Search for Another Location

Airport or City:

Trip Planner

Search our weather history database for the weather conditions in past years. The results will help you decide how hot, cold, wet, or windy it might be!

Date:

Astronomy

Oct. 01, 2013 Rise Set
Actual Time 8:38 AM HDT 8:12 PM HDT
Civil Twilight 8:04 AM HDT 8:46 PM HDT
Nautical Twilight 7:25 AM HDT 9:25 PM HDT
Astronomical Twilight 6:44 AM HDT 10:06 PM HDT
Moon 5:06 AM HDT (10/1) 6:39 PM HDT (10/1)
Length of Visible Light 12h 41m
Length of Day
11h 34m
Waning Crescent, 11% of the Moon is Illuminated
Oct 1
Waning Crescent
Oct 4
New
Oct 11
First Quarter
Oct 18
Full
Oct 26
Last Quarter

Hourly Weather History & Observations

Time (HDT) Temp. Windchill Dew Point Humidity Pressure Visibility Wind Dir Wind Speed Gust Speed Precip Events Conditions
12:16 AM 48.2 °F - 44.6 °F 87% 29.58 in 1.8 mi ESE 20.7 mph - N/A   Overcast
12:36 AM 48.2 °F - 44.6 °F 87% 29.56 in 2.0 mi ESE 19.6 mph - N/A   Overcast
12:56 AM 48.2 °F - 44.6 °F 87% 29.53 in 1.8 mi ESE 20.7 mph 26.5 mph N/A   Overcast
1:16 AM 48.2 °F - 44.6 °F 87% 29.51 in 1.2 mi ESE 21.9 mph 27.6 mph N/A   Overcast
1:36 AM 48.2 °F - 44.6 °F 87% 29.48 in 1.0 mi ESE 23.0 mph 27.6 mph N/A   Overcast
1:56 AM 48.2 °F - 46.4 °F 93% 29.45 in 1.2 mi SE 16.1 mph 27.6 mph N/A   Overcast
2:16 AM 48.2 °F - 46.4 °F 93% 29.43 in 1.2 mi SE 19.6 mph - N/A   Overcast
2:36 AM 50.0 °F - 46.4 °F 87% 29.41 in 2.0 mi SE 16.1 mph 27.6 mph N/A   Overcast
2:56 AM 50.0 °F - 46.4 °F 87% 29.41 in 5.0 mi South 16.1 mph - N/A   Overcast
3:16 AM 48.2 °F - 44.6 °F 87% 29.40 in 9.0 mi SSW 8.1 mph - N/A   Overcast
3:36 AM 48.2 °F - 44.6 °F 87% 29.40 in 10.0 mi SW 10.4 mph - N/A   Overcast
3:56 AM 48.2 °F - 44.6 °F 87% 29.39 in 10.0 mi SW 13.8 mph 19.6 mph N/A   Overcast
4:16 AM 48.2 °F - 44.6 °F 87% 29.38 in 10.0 mi SW 10.4 mph - N/A   Mostly Cloudy
4:36 AM 48.2 °F - 44.6 °F 87% 29.37 in 10.0 mi SSW 11.5 mph - N/A   Mostly Cloudy
4:56 AM 48.2 °F - 44.6 °F 87% 29.36 in 10.0 mi SSW 13.8 mph - N/A   Mostly Cloudy
5:16 AM 46.4 °F 41.9 °F 42.8 °F 87% 29.34 in 10.0 mi SSW 9.2 mph - N/A   Mostly Cloudy
5:36 AM 46.4 °F 39.8 °F 42.8 °F 87% 29.33 in 10.0 mi SW 16.1 mph 21.9 mph N/A   Mostly Cloudy
5:56 AM 46.4 °F 39.5 °F 41.0 °F 81% 29.33 in 10.0 mi SW 17.3 mph - N/A   Partly Cloudy
6:16 AM 46.4 °F 39.5 °F 41.0 °F 81% 29.32 in 10.0 mi SSW 17.3 mph - N/A   Mostly Cloudy
6:36 AM 46.4 °F 41.5 °F 41.0 °F 81% 29.32 in 10.0 mi SW 10.4 mph - N/A   Partly Cloudy
6:56 AM 46.4 °F 40.7 °F 41.0 °F 81% 29.31 in 10.0 mi WSW 12.7 mph - N/A   Scattered Clouds
7:16 AM 46.4 °F 42.4 °F 42.8 °F 87% 29.30 in 4.0 mi WSW 8.1 mph - N/A   Overcast
7:36 AM 44.6 °F 40.7 °F 41.0 °F 87% 29.30 in 10.0 mi West 6.9 mph - N/A   Mostly Cloudy
7:56 AM 44.6 °F 40.7 °F 41.0 °F 87% 29.29 in 10.0 mi SSW 6.9 mph - N/A   Overcast
8:16 AM 44.6 °F 38.8 °F 41.0 °F 87% 29.28 in 10.0 mi SSW 11.5 mph - N/A   Scattered Clouds
8:36 AM 46.4 °F 41.1 °F 41.0 °F 81% 29.28 in 10.0 mi SW 11.5 mph - N/A   Mostly Cloudy
8:56 AM 44.6 °F 38.1 °F 39.2 °F 81% 29.27 in 10.0 mi SW 13.8 mph - N/A   Overcast
9:16 AM 44.6 °F 38.4 °F 39.2 °F 81% 29.27 in 10.0 mi SSW 12.7 mph - N/A   Mostly Cloudy
9:36 AM 46.4 °F 40.1 °F 39.2 °F 76% 29.26 in 9.0 mi SSW 15.0 mph 21.9 mph N/A   Mostly Cloudy
9:56 AM 46.4 °F 40.4 °F 41.0 °F 81% 29.26 in 9.0 mi SSW 13.8 mph 21.9 mph N/A   Overcast
10:16 AM 46.4 °F 41.5 °F 41.0 °F 81% 29.25 in 8.0 mi South 10.4 mph - N/A   Overcast
10:36 AM 46.4 °F 39.5 °F 39.2 °F 76% 29.24 in 10.0 mi SSW 17.3 mph 21.9 mph N/A   Mostly Cloudy
10:56 AM 46.4 °F 39.2 °F 39.2 °F 76% 29.23 in 10.0 mi SSW 18.4 mph 24.2 mph N/A   Overcast
11:16 AM 46.4 °F 40.4 °F 39.2 °F 76% 29.23 in 10.0 mi SSW 13.8 mph - N/A   Overcast
11:36 AM 46.4 °F 39.0 °F 41.0 °F 81% 29.21 in 8.0 mi South 19.6 mph 26.5 mph N/A   Overcast
11:56 AM 46.4 °F 39.2 °F 41.0 °F 81% 29.20 in 10.0 mi South 18.4 mph 26.5 mph N/A   Overcast
12:16 PM 46.4 °F 40.1 °F 41.0 °F 81% 29.19 in 9.0 mi SSW 15.0 mph 23.0 mph N/A   Overcast
12:36 PM 46.4 °F 39.8 °F 41.0 °F 81% 29.18 in 10.0 mi SSW 16.1 mph 19.6 mph N/A   Overcast
12:56 PM 46.4 °F 41.5 °F 39.2 °F 76% 29.16 in 10.0 mi SSW 10.4 mph - N/A   Overcast
1:16 PM 46.4 °F 40.7 °F 39.2 °F 76% 29.15 in 7.0 mi South 12.7 mph 16.1 mph N/A   Overcast
1:36 PM 46.4 °F 41.9 °F 41.0 °F 81% 29.13 in 7.0 mi SSE 9.2 mph - N/A   Overcast
1:56 PM 46.4 °F 42.9 °F 39.2 °F 76% 29.12 in 9.0 mi SE 6.9 mph - N/A   Mostly Cloudy
2:16 PM 46.4 °F 41.5 °F 41.0 °F 81% 29.10 in 10.0 mi East 10.4 mph - N/A   Overcast
2:36 PM 44.6 °F 39.7 °F 42.8 °F 93% 29.09 in 5.0 mi NE 9.2 mph - N/A   Overcast
2:56 PM 44.6 °F 40.2 °F 42.8 °F 93% 29.08 in 5.0 mi NE 8.1 mph - N/A   Overcast
3:16 PM 46.4 °F 44.3 °F 39.2 °F 76% 29.07 in 9.0 mi NNE 4.6 mph - N/A   Overcast
3:36 PM 46.4 °F 41.1 °F 39.2 °F 76% 29.07 in 10.0 mi NW 11.5 mph - N/A   Mostly Cloudy
3:56 PM 46.4 °F 40.1 °F 41.0 °F 81% 29.06 in 10.0 mi NW 15.0 mph 18.4 mph N/A   Overcast
4:16 PM 46.4 °F 39.5 °F 41.0 °F 81% 29.06 in 10.0 mi WNW 17.3 mph 24.2 mph N/A   Mostly Cloudy
4:36 PM 46.4 °F 41.5 °F 42.8 °F 87% 29.06 in 9.0 mi WNW 10.4 mph 18.4 mph N/A   Overcast
4:56 PM 48.2 °F - 42.8 °F 82% 29.06 in 10.0 mi NW 12.7 mph - N/A   Overcast
5:16 PM 48.2 °F - 39.2 °F 71% 29.08 in 10.0 mi NW 17.3 mph 23.0 mph N/A   Overcast
5:36 PM 46.4 °F 38.3 °F 39.2 °F 76% 29.09 in 10.0 mi NW 23.0 mph 29.9 mph N/A   Overcast
5:56 PM 46.4 °F 39.2 °F 39.2 °F 76% 29.11 in 7.0 mi NW 18.4 mph 25.3 mph N/A   Overcast
6:16 PM 46.4 °F 38.3 °F 39.2 °F 76% 29.12 in 5.0 mi NW 23.0 mph 29.9 mph N/A   Mostly Cloudy
6:36 PM 46.4 °F 38.5 °F 39.2 °F 76% 29.13 in 4.0 mi NNW 21.9 mph 28.8 mph N/A   Overcast
6:56 PM 46.4 °F 38.3 °F 41.0 °F 81% 29.14 in 10.0 mi NW 23.0 mph 28.8 mph N/A   Mostly Cloudy
7:16 PM 46.4 °F 39.0 °F 39.2 °F 76% 29.16 in 10.0 mi NNW 19.6 mph 28.8 mph N/A   Overcast
7:36 PM 46.4 °F 39.2 °F 39.2 °F 76% 29.16 in 10.0 mi WNW 18.4 mph 23.0 mph N/A   Overcast
7:56 PM 46.4 °F 40.4 °F 41.0 °F 81% 29.18 in 10.0 mi WNW 13.8 mph 21.9 mph N/A   Overcast
8:16 PM 46.4 °F 40.4 °F 41.0 °F 81% 29.18 in 10.0 mi WNW 13.8 mph - N/A   Overcast
8:36 PM 46.4 °F 40.4 °F 39.2 °F 76% 29.19 in 10.0 mi WNW 13.8 mph - N/A   Overcast
8:56 PM 46.4 °F 40.4 °F 41.0 °F 81% 29.20 in 10.0 mi NW 13.8 mph 19.6 mph N/A   Overcast
9:16 PM 46.4 °F 41.1 °F 41.0 °F 81% 29.21 in 10.0 mi NW 11.5 mph 16.1 mph N/A   Overcast
9:36 PM 46.4 °F 41.1 °F 41.0 °F 81% 29.21 in 5.0 mi WNW 11.5 mph - N/A   Overcast
9:56 PM 46.4 °F 39.0 °F 41.0 °F 81% 29.21 in 10.0 mi NW 19.6 mph 25.3 mph N/A   Overcast
10:16 PM 46.4 °F 39.0 °F 39.2 °F 76% 29.23 in 10.0 mi WNW 19.6 mph 27.6 mph N/A   Overcast
10:36 PM 46.4 °F 38.7 °F 41.0 °F 81% 29.24 in 7.0 mi NW 20.7 mph 31.1 mph N/A   Overcast
10:56 PM 46.4 °F 39.0 °F 41.0 °F 81% 29.25 in 4.0 mi NW 19.6 mph 28.8 mph N/A   Mostly Cloudy
11:16 PM 46.4 °F 39.0 °F 41.0 °F 81% 29.26 in 10.0 mi NNW 19.6 mph 31.1 mph N/A   Overcast
11:36 PM - - - N/A% 29.26 in 2.5 mi NNW 32.2 mph 40.3 mph N/A   Overcast
11:56 PM - - - N/A% 29.28 in 6.0 mi NNW 25.3 mph 38.0 mph N/A   Overcast